Time;durP1;ratioP1;P1;durP2;ratioP2;P2;SDS_P1;SDS_P2;PMS_P1;PMS_P2;Temp;Humidity;BMP_temperature;BMP_pressure;BME280_temperature;BME280_humidity;BME280_pressure;Samples;Min_cycle;Max_cycle;Signal;HPM_P1;HPM_P2
2023/06/30 00:00:12;;;;;;;8.23;5.90;;;18.10;99.90;;;;;;4993717;28;20479;-58
2023/06/30 00:02:41;;;;;;;6.27;5.00;;;18.00;99.90;;;;;;4995683;28;20534;-58
2023/06/30 00:05:10;;;;;;;5.63;5.10;;;18.00;99.90;;;;;;4994142;28;20920;-59
2023/06/30 00:07:42;;;;;;;5.70;5.20;;;17.90;99.90;;;;;;4993506;28;20491;-59
2023/06/30 00:10:11;;;;;;;4.40;4.00;;;17.90;99.90;;;;;;4996780;28;20916;-59
2023/06/30 00:12:39;;;;;;;4.30;3.90;;;18.00;99.90;;;;;;4993252;28;20667;-58
2023/06/30 00:15:07;;;;;;;3.40;3.10;;;18.00;99.90;;;;;;4997599;28;20572;-58
2023/06/30 00:17:36;;;;;;;5.03;3.20;;;18.00;99.90;;;;;;4990997;28;20982;-59
2023/06/30 00:20:05;;;;;;;4.03;3.63;;;17.90;99.90;;;;;;4997691;28;20477;-59
2023/06/30 00:22:35;;;;;;;3.33;2.70;;;17.90;99.90;;;;;;4987267;28;20496;-59
2023/06/30 00:25:06;;;;;;;3.57;2.73;;;17.90;99.90;;;;;;4988248;28;21023;-59
2023/06/30 00:27:34;;;;;;;3.60;2.70;;;17.90;99.90;;;;;;4991804;28;22422;-58
2023/06/30 00:30:02;;;;;;;5.30;3.50;;;17.90;99.90;;;;;;4988025;28;20504;-59
2023/06/30 00:32:31;;;;;;;3.13;2.93;;;17.90;99.90;;;;;;4990629;28;20588;-58
2023/06/30 00:34:59;;;;;;;3.77;3.47;;;17.80;99.90;;;;;;4990817;28;20479;-58
2023/06/30 00:37:28;;;;;;;2.60;2.40;;;17.80;99.90;;;;;;4988183;28;20496;-58
2023/06/30 00:39:56;;;;;;;3.33;2.80;;;17.80;99.90;;;;;;4990074;28;20571;-58
2023/06/30 00:42:25;;;;;;;2.77;2.57;;;17.70;99.90;;;;;;4990384;28;20500;-59
2023/06/30 00:44:54;;;;;;;4.40;2.90;;;17.80;99.90;;;;;;4984482;28;20476;-59
2023/06/30 00:47:22;;;;;;;3.30;2.40;;;17.80;99.90;;;;;;4984383;28;20560;-59
2023/06/30 00:49:50;;;;;;;3.50;2.60;;;17.70;99.90;;;;;;4988638;28;20912;-58
2023/06/30 00:52:18;;;;;;;3.03;2.20;;;17.70;99.90;;;;;;4984365;28;21315;-59
2023/06/30 00:54:46;;;;;;;3.10;2.80;;;17.70;99.90;;;;;;4992298;28;20949;-58
2023/06/30 00:57:14;;;;;;;2.60;2.40;;;17.70;99.90;;;;;;4991260;28;20493;-57
2023/06/30 00:59:43;;;;;;;4.03;2.60;;;17.70;99.90;;;;;;4989186;28;20472;-58
2023/06/30 01:02:17;;;;;;;3.43;2.50;;;17.70;99.90;;;;;;4984706;28;20515;-58
2023/06/30 01:04:53;;;;;;;2.80;2.60;;;17.60;99.90;;;;;;4991061;28;20571;-58
2023/06/30 01:07:28;;;;;;;2.63;2.40;;;17.60;99.90;;;;;;4985781;28;20480;-59
2023/06/30 01:10:00;;;;;;;3.37;2.37;;;17.60;99.90;;;;;;4991651;28;20470;-58
2023/06/30 01:12:28;;;;;;;4.13;2.70;;;17.70;99.90;;;;;;4989206;28;20601;-58
2023/06/30 01:14:58;;;;;;;2.80;2.60;;;17.70;99.90;;;;;;4989453;28;20504;-59
2023/06/30 01:17:27;;;;;;;4.07;3.00;;;17.70;99.90;;;;;;4987938;28;20496;-58
2023/06/30 01:19:56;;;;;;;3.03;2.77;;;17.60;99.90;;;;;;4986951;28;20584;-57
2023/06/30 01:22:28;;;;;;;2.97;2.70;;;17.60;99.90;;;;;;4991273;28;20578;-58
2023/06/30 01:24:59;;;;;;;4.70;2.90;;;17.60;99.90;;;;;;4989286;28;21047;-59
2023/06/30 01:27:28;;;;;;;6.13;3.20;;;17.50;99.90;;;;;;4990862;28;20931;-59
2023/06/30 01:29:58;;;;;;;5.03;3.00;;;17.60;99.90;;;;;;4991420;28;20551;-58
2023/06/30 01:32:27;;;;;;;4.53;2.70;;;17.60;99.90;;;;;;4981985;28;20532;-58
2023/06/30 01:34:56;;;;;;;4.60;3.30;;;17.60;99.90;;;;;;4980082;28;20551;-58
2023/06/30 01:37:24;;;;;;;4.87;3.10;;;17.60;99.90;;;;;;4986543;28;20611;-59
2023/06/30 01:39:51;;;;;;;3.77;3.47;;;17.60;99.90;;;;;;4980658;28;20476;-58
2023/06/30 01:42:20;;;;;;;4.30;3.90;;;17.60;99.90;;;;;;4985082;28;20908;-58
2023/06/30 01:44:50;;;;;;;4.10;3.67;;;17.60;99.90;;;;;;4991142;28;20473;-58
2023/06/30 01:47:20;;;;;;;5.70;4.17;;;17.60;99.90;;;;;;4988804;28;20504;-58
2023/06/30 01:49:48;;;;;;;5.00;4.50;;;17.60;99.90;;;;;;4994903;28;20528;-58
2023/06/30 01:52:16;;;;;;;5.83;4.40;;;17.60;99.90;;;;;;4991667;28;20963;-58
2023/06/30 01:54:44;;;;;;;5.07;4.57;;;17.50;99.90;;;;;;4994764;28;20464;-58
2023/06/30 01:57:12;;;;;;;5.00;4.43;;;17.50;99.90;;;;;;4994101;28;20474;-58
2023/06/30 01:59:42;;;;;;;5.00;4.47;;;17.50;99.90;;;;;;4991491;28;20576;-58
2023/06/30 02:02:10;;;;;;;5.43;4.70;;;17.40;99.90;;;;;;4993262;28;20542;-57
2023/06/30 02:04:39;;;;;;;5.43;4.93;;;17.40;99.90;;;;;;4992647;28;20969;-59
2023/06/30 02:07:07;;;;;;;4.90;4.20;;;17.40;99.90;;;;;;4991208;28;20559;-58
2023/06/30 02:09:35;;;;;;;5.77;4.60;;;17.40;99.90;;;;;;4993224;28;20476;-59
2023/06/30 02:12:15;;;;;;;8.43;5.00;;;17.40;99.90;;;;;;4989884;28;22193;-59
2023/06/30 02:14:43;;;;;;;4.40;4.00;;;17.40;99.90;;;;;;4991842;28;20984;-59
2023/06/30 02:17:11;;;;;;;5.33;4.23;;;17.40;99.90;;;;;;4992746;28;20470;-58
2023/06/30 02:19:40;;;;;;;5.50;4.40;;;17.40;99.90;;;;;;4987528;28;21065;-58
2023/06/30 02:22:08;;;;;;;4.77;4.33;;;17.40;99.90;;;;;;4982067;28;20615;-59
2023/06/30 02:24:36;;;;;;;7.27;4.77;;;17.30;99.90;;;;;;4987087;28;21799;-61
2023/06/30 02:27:08;;;;;;;6.40;5.03;;;17.30;99.90;;;;;;4988396;28;20479;-59
2023/06/30 02:29:36;;;;;;;4.67;4.20;;;17.30;99.90;;;;;;4992765;28;20467;-59
2023/06/30 02:32:05;;;;;;;4.60;4.10;;;17.30;99.90;;;;;;4986218;28;20873;-59
2023/06/30 02:34:33;;;;;;;6.03;4.50;;;17.30;99.90;;;;;;4991788;28;21053;-58
2023/06/30 02:37:02;;;;;;;7.97;4.90;;;17.30;99.90;;;;;;4991493;28;20522;-58
2023/06/30 02:39:30;;;;;;;5.17;4.70;;;17.30;99.90;;;;;;4993209;28;20492;-59
2023/06/30 02:41:58;;;;;;;7.27;4.63;;;17.30;99.90;;;;;;4989777;28;20503;-59
2023/06/30 02:44:26;;;;;;;5.20;4.30;;;17.30;99.90;;;;;;4992124;28;21065;-59
2023/06/30 02:46:54;;;;;;;5.17;4.20;;;17.20;99.90;;;;;;4992561;28;20482;-58
2023/06/30 02:49:22;;;;;;;9.17;4.90;;;17.30;99.90;;;;;;4989567;28;20667;-58
2023/06/30 02:51:50;;;;;;;6.30;5.53;;;17.30;99.90;;;;;;4983757;28;21003;-60
2023/06/30 02:54:19;;;;;;;4.47;4.17;;;17.20;99.90;;;;;;4985584;28;21007;-58
2023/06/30 02:56:47;;;;;;;7.53;4.43;;;17.30;99.90;;;;;;4985966;28;20548;-58
2023/06/30 02:59:15;;;;;;;5.27;4.20;;;17.30;99.90;;;;;;4988611;28;20907;-58
2023/06/30 03:01:44;;;;;;;6.53;4.13;;;17.30;99.90;;;;;;4983519;28;20480;-59
2023/06/30 03:04:12;;;;;;;4.83;4.37;;;17.20;99.90;;;;;;4984915;28;20500;-59
2023/06/30 03:06:40;;;;;;;8.43;4.10;;;17.20;99.90;;;;;;4987874;28;20560;-59
2023/06/30 03:09:08;;;;;;;5.40;3.90;;;17.20;99.90;;;;;;4982716;28;20556;-59
2023/06/30 03:11:38;;;;;;;4.37;3.80;;;17.20;99.90;;;;;;4987166;28;20529;-58
2023/06/30 03:14:06;;;;;;;5.87;3.77;;;17.20;99.90;;;;;;4987451;28;21026;-59
2023/06/30 03:16:36;;;;;;;5.27;4.07;;;17.10;99.90;;;;;;4988806;28;20482;-58
2023/06/30 03:19:04;;;;;;;4.03;3.50;;;17.10;99.90;;;;;;4989021;28;20492;-57
2023/06/30 03:21:32;;;;;;;6.17;3.70;;;17.10;99.90;;;;;;4986824;28;20511;-58
2023/06/30 03:24:00;;;;;;;4.00;3.37;;;17.10;99.90;;;;;;4983606;28;20483;-58
2023/06/30 03:26:29;;;;;;;4.27;3.37;;;17.10;99.90;;;;;;4986025;28;20991;-57
2023/06/30 03:28:58;;;;;;;3.70;2.93;;;17.10;99.90;;;;;;4981499;28;20554;-58
2023/06/30 03:31:26;;;;;;;3.93;3.60;;;17.10;99.90;;;;;;4984949;28;20492;-58
2023/06/30 03:33:54;;;;;;;5.07;3.77;;;17.10;99.90;;;;;;4980246;28;20866;-58
2023/06/30 03:36:22;;;;;;;5.73;3.40;;;17.00;99.90;;;;;;4989884;28;20924;-58
2023/06/30 03:38:50;;;;;;;5.83;3.50;;;17.00;99.90;;;;;;4994250;28;20586;-59
2023/06/30 03:41:18;;;;;;;4.47;3.10;;;17.00;99.90;;;;;;4992935;28;22122;-58
2023/06/30 03:43:46;;;;;;;4.23;2.97;;;17.00;99.90;;;;;;4993916;28;20585;-60
2023/06/30 03:46:16;;;;;;;4.80;3.27;;;17.00;99.90;;;;;;4994668;28;21065;-60
2023/06/30 03:48:44;;;;;;;3.40;3.10;;;17.00;99.90;;;;;;4997956;28;20483;-58
2023/06/30 03:51:12;;;;;;;4.20;3.57;;;17.00;99.90;;;;;;4998647;28;20877;-60
2023/06/30 03:53:42;;;;;;;4.40;3.00;;;17.00;99.90;;;;;;5000363;28;20486;-60
2023/06/30 03:56:10;;;;;;;3.27;2.97;;;17.00;99.90;;;;;;5000888;28;20491;-58
2023/06/30 03:58:38;;;;;;;3.23;2.63;;;17.00;99.90;;;;;;4998281;28;20570;-57
2023/06/30 04:01:07;;;;;;;3.53;2.87;;;17.00;99.90;;;;;;4996433;28;21061;-58
2023/06/30 04:03:36;;;;;;;5.97;3.27;;;17.10;99.90;;;;;;4992445;28;20527;-60
2023/06/30 04:06:04;;;;;;;3.10;2.73;;;17.10;99.90;;;;;;4996501;28;21068;-60
2023/06/30 04:08:33;;;;;;;4.53;3.10;;;17.10;99.90;;;;;;4995941;28;20809;-60
2023/06/30 04:11:01;;;;;;;3.73;3.43;;;17.10;99.90;;;;;;4996224;28;20500;-60
2023/06/30 04:13:29;;;;;;;8.47;3.70;;;17.00;99.90;;;;;;4999840;28;20491;-59
2023/06/30 04:15:57;;;;;;;4.13;2.90;;;17.00;99.90;;;;;;4994054;28;20567;-59
2023/06/30 04:18:26;;;;;;;3.67;2.90;;;17.00;99.90;;;;;;4991168;28;20503;-60
2023/06/30 04:20:56;;;;;;;4.20;2.63;;;17.00;99.90;;;;;;4992379;28;21024;-59
2023/06/30 04:23:24;;;;;;;5.27;3.03;;;17.00;99.90;;;;;;4991974;28;21009;-60
2023/06/30 04:25:52;;;;;;;5.17;2.90;;;17.00;99.90;;;;;;4983871;28;20699;-59
2023/06/30 04:28:20;;;;;;;3.00;2.63;;;17.00;99.90;;;;;;4989225;28;20564;-60
2023/06/30 04:30:48;;;;;;;2.63;2.50;;;17.10;99.90;;;;;;4993368;28;20477;-60
2023/06/30 04:33:16;;;;;;;3.10;2.50;;;17.10;99.90;;;;;;4987954;28;20591;-60
2023/06/30 04:35:44;;;;;;;3.00;2.00;;;17.10;99.90;;;;;;4987755;28;21047;-59
2023/06/30 04:38:14;;;;;;;2.83;2.40;;;17.00;99.90;;;;;;4985965;28;20496;-59
2023/06/30 04:40:42;;;;;;;3.30;2.30;;;17.00;99.90;;;;;;4990036;28;21005;-58
2023/06/30 04:43:12;;;;;;;2.70;2.50;;;17.10;99.90;;;;;;4977441;28;21170;-57
2023/06/30 04:45:40;;;;;;;2.00;1.90;;;17.10;99.90;;;;;;4988492;28;20477;-58
2023/06/30 04:48:09;;;;;;;2.30;2.10;;;17.10;99.90;;;;;;4982745;28;20470;-58
2023/06/30 04:50:37;;;;;;;2.70;2.20;;;17.20;99.90;;;;;;4987402;28;20473;-58
2023/06/30 04:53:05;;;;;;;2.23;2.00;;;17.20;99.90;;;;;;4989117;28;21153;-59
2023/06/30 04:55:34;;;;;;;3.07;2.43;;;17.30;99.90;;;;;;4986120;28;20484;-59
2023/06/30 04:58:02;;;;;;;2.57;2.20;;;17.20;99.90;;;;;;4985715;28;20982;-59
2023/06/30 05:00:30;;;;;;;2.87;2.43;;;17.20;99.90;;;;;;4989515;28;20500;-60
2023/06/30 05:02:58;;;;;;;2.90;2.70;;;17.20;99.90;;;;;;4991287;28;20591;-59
2023/06/30 05:05:27;;;;;;;3.90;2.80;;;17.20;99.90;;;;;;4989940;28;20565;-59
2023/06/30 05:07:55;;;;;;;2.90;2.63;;;17.20;99.90;;;;;;4981289;28;20981;-59
2023/06/30 05:10:23;;;;;;;2.50;2.33;;;17.20;99.90;;;;;;4981374;28;21112;-59
2023/06/30 05:12:52;;;;;;;3.13;2.87;;;17.20;99.90;;;;;;4978697;28;20568;-58
2023/06/30 05:15:20;;;;;;;3.77;2.67;;;17.20;99.90;;;;;;4989294;28;20568;-59
2023/06/30 05:17:48;;;;;;;3.57;3.13;;;17.20;99.90;;;;;;4977451;28;20793;-59
2023/06/30 05:20:16;;;;;;;4.70;2.80;;;17.20;99.90;;;;;;4990056;28;20863;-58
2023/06/30 05:22:44;;;;;;;3.50;3.20;;;17.20;99.90;;;;;;4986730;28;20908;-58
2023/06/30 05:25:12;;;;;;;4.60;3.40;;;17.20;99.90;;;;;;4989570;28;21264;-58
2023/06/30 05:27:40;;;;;;;4.10;2.60;;;17.20;99.90;;;;;;4991485;28;20487;-57
2023/06/30 05:30:11;;;;;;;4.13;2.80;;;17.10;99.90;;;;;;4992347;28;20456;-58
2023/06/30 05:32:39;;;;;;;3.73;2.60;;;17.20;99.90;;;;;;4991827;28;20572;-59
2023/06/30 05:35:07;;;;;;;2.97;2.33;;;17.20;99.90;;;;;;4992449;28;20555;-59
2023/06/30 05:37:35;;;;;;;3.17;2.53;;;17.20;99.90;;;;;;4993390;28;20509;-58
2023/06/30 05:40:03;;;;;;;3.10;2.40;;;17.10;99.90;;;;;;4985434;28;20489;-58
2023/06/30 05:42:31;;;;;;;4.03;2.30;;;17.10;99.90;;;;;;4990144;28;21001;-58
2023/06/30 05:44:59;;;;;;;2.40;2.30;;;17.10;99.90;;;;;;4991496;28;20503;-58
2023/06/30 05:47:29;;;;;;;2.83;2.40;;;17.10;99.90;;;;;;4991860;28;20916;-58
2023/06/30 05:49:57;;;;;;;3.57;2.53;;;17.10;99.90;;;;;;4996558;28;20477;-58
2023/06/30 05:52:27;;;;;;;5.20;2.40;;;17.00;99.90;;;;;;4995664;28;21006;-58
2023/06/30 05:54:55;;;;;;;4.77;3.13;;;17.00;99.90;;;;;;4995946;28;20515;-57
2023/06/30 05:57:23;;;;;;;4.83;2.20;;;17.00;99.90;;;;;;4995426;28;20969;-58
2023/06/30 05:59:51;;;;;;;3.43;2.33;;;16.90;99.90;;;;;;4993898;28;20508;-59
2023/06/30 06:02:19;;;;;;;4.37;2.43;;;16.90;99.90;;;;;;4993864;28;20578;-58
2023/06/30 06:04:51;;;;;;;2.17;1.97;;;16.90;99.90;;;;;;4996422;28;20479;-58
2023/06/30 06:07:19;;;;;;;4.37;2.27;;;16.90;99.90;;;;;;4997626;28;20476;-58
2023/06/30 06:09:47;;;;;;;3.40;2.37;;;16.90;99.90;;;;;;4997565;28;20469;-58
2023/06/30 06:12:15;;;;;;;2.80;2.37;;;17.00;99.90;;;;;;4996419;28;20496;-58
2023/06/30 06:14:43;;;;;;;4.83;2.30;;;17.00;99.90;;;;;;4995542;28;21014;-59
2023/06/30 06:17:11;;;;;;;2.03;1.80;;;17.00;99.90;;;;;;4997788;28;20575;-58
2023/06/30 06:19:39;;;;;;;3.10;2.20;;;17.00;99.90;;;;;;4996437;28;20481;-57
2023/06/30 06:22:09;;;;;;;4.17;3.17;;;17.00;99.90;;;;;;4992689;28;20576;-58
2023/06/30 06:24:37;;;;;;;4.90;2.30;;;17.10;99.90;;;;;;4990824;28;20504;-59
2023/06/30 06:27:06;;;;;;;3.77;2.23;;;17.10;99.90;;;;;;4998042;28;20465;-59
2023/06/30 06:29:33;;;;;;;2.60;1.87;;;17.10;99.90;;;;;;4997096;28;20794;-58
2023/06/30 06:32:02;;;;;;;2.60;1.97;;;17.10;99.90;;;;;;4993536;28;20480;-58
2023/06/30 06:34:30;;;;;;;5.73;2.10;;;17.10;99.90;;;;;;4998037;28;20906;-58
2023/06/30 06:36:57;;;;;;;2.13;1.83;;;17.20;99.90;;;;;;4996937;28;20501;-58
2023/06/30 06:39:27;;;;;;;2.37;1.97;;;17.20;99.90;;;;;;4996573;28;20483;-58
2023/06/30 06:41:56;;;;;;;2.27;2.07;;;17.10;99.90;;;;;;4991799;28;20588;-60
2023/06/30 06:44:24;;;;;;;2.90;1.97;;;17.10;99.90;;;;;;4997268;28;20563;-60
2023/06/30 06:47:31;;;;;;;2.60;2.27;;;17.10;99.90;;;;;;4996567;28;21352;-60
2023/06/30 06:50:00;;;;;;;3.93;2.03;;;17.00;99.90;;;;;;4996186;28;20555;-60
2023/06/30 06:52:28;;;;;;;3.07;2.03;;;17.00;99.90;;;;;;4994051;28;20496;-60
2023/06/30 06:54:58;;;;;;;3.77;2.30;;;16.90;99.90;;;;;;4994129;28;20468;-60
2023/06/30 06:57:26;;;;;;;3.47;2.40;;;16.80;99.90;;;;;;4996875;28;20504;-60
2023/06/30 06:59:53;;;;;;;4.30;2.30;;;16.80;99.90;;;;;;4995772;28;21062;-60
2023/06/30 07:02:21;;;;;;;2.93;1.97;;;16.80;99.90;;;;;;4988205;28;20931;-60
2023/06/30 07:04:50;;;;;;;2.50;2.00;;;16.80;99.90;;;;;;4977006;28;20468;-59
2023/06/30 07:07:18;;;;;;;5.10;2.70;;;16.80;99.90;;;;;;4989775;28;20464;-60
2023/06/30 07:09:46;;;;;;;2.23;1.93;;;16.80;99.90;;;;;;5000267;28;20470;-60
2023/06/30 07:12:15;;;;;;;2.80;2.20;;;16.80;99.90;;;;;;5000381;28;20488;-60
2023/06/30 07:14:43;;;;;;;4.10;2.50;;;16.90;99.90;;;;;;5003203;28;20556;-60
2023/06/30 07:17:14;;;;;;;3.73;1.90;;;17.00;99.90;;;;;;5003658;28;20503;-60
2023/06/30 07:19:42;;;;;;;3.10;2.33;;;17.00;99.90;;;;;;4998922;28;20508;-60
2023/06/30 07:22:10;;;;;;;2.80;2.50;;;17.10;99.90;;;;;;4996820;28;20488;-59
2023/06/30 07:24:38;;;;;;;3.20;2.23;;;17.20;99.90;;;;;;4997198;28;20534;-60
2023/06/30 07:27:11;;;;;;;2.40;2.20;;;17.30;99.90;;;;;;5001978;28;20480;-57
2023/06/30 07:29:40;;;;;;;3.20;2.30;;;17.40;99.90;;;;;;5001509;28;20566;-58
2023/06/30 07:32:09;;;;;;;3.13;2.30;;;17.50;99.90;;;;;;4998812;28;20514;-57
2023/06/30 07:34:39;;;;;;;4.03;2.17;;;17.60;99.90;;;;;;4997175;28;21373;-58
2023/06/30 07:37:08;;;;;;;5.10;2.10;;;17.80;99.90;;;;;;5001940;28;20475;-58
2023/06/30 07:39:36;;;;;;;4.40;2.07;;;17.90;99.90;;;;;;4999539;28;21135;-58
2023/06/30 07:42:05;;;;;;;3.53;1.77;;;18.00;99.90;;;;;;5000924;28;20476;-58
2023/06/30 07:44:34;;;;;;;4.07;1.60;;;18.10;99.90;;;;;;4998289;28;20783;-58
2023/06/30 07:47:04;;;;;;;4.03;2.57;;;18.10;99.90;;;;;;5000626;28;20496;-57
2023/06/30 07:49:32;;;;;;;2.10;1.90;;;18.20;99.90;;;;;;4998073;28;20495;-57
2023/06/30 07:52:00;;;;;;;3.80;1.80;;;18.20;99.90;;;;;;4999932;28;21060;-57
2023/06/30 07:54:28;;;;;;;3.83;1.83;;;18.20;99.90;;;;;;4999946;28;21038;-58
2023/06/30 07:56:56;;;;;;;3.60;2.00;;;18.30;99.90;;;;;;5002209;28;20555;-58
2023/06/30 07:59:24;;;;;;;4.50;2.27;;;18.20;99.90;;;;;;4999424;28;20499;-58
2023/06/30 08:01:52;;;;;;;2.90;2.17;;;18.20;99.90;;;;;;4994105;28;20500;-58
2023/06/30 08:04:21;;;;;;;3.80;2.13;;;18.20;99.90;;;;;;5002817;28;20867;-58
2023/06/30 08:06:50;;;;;;;2.73;2.10;;;18.30;99.90;;;;;;4999641;28;20476;-58
2023/06/30 08:09:18;;;;;;;2.07;1.77;;;18.30;99.90;;;;;;5004486;28;20504;-58
2023/06/30 08:11:46;;;;;;;3.90;2.10;;;18.40;99.90;;;;;;5002527;28;21029;-57
2023/06/30 08:14:14;;;;;;;2.03;1.73;;;18.40;99.90;;;;;;4998708;28;20550;-57
2023/06/30 08:16:42;;;;;;;5.47;1.73;;;18.40;99.90;;;;;;4999689;28;20538;-60
2023/06/30 08:19:10;;;;;;;8.80;2.40;;;18.40;99.90;;;;;;5002127;28;20537;-58
2023/06/30 08:22:01;;;;;;;3.93;1.80;;;18.50;99.90;;;;;;5000255;28;20492;-58
2023/06/30 08:24:29;;;;;;;3.07;1.70;;;18.60;99.90;;;;;;5000913;28;20554;-58
2023/06/30 08:26:57;;;;;;;1.80;1.70;;;18.60;99.90;;;;;;5000569;28;20509;-58
2023/06/30 08:29:25;;;;;;;2.83;1.90;;;18.70;99.90;;;;;;5002664;28;20985;-57
2023/06/30 08:31:54;;;;;;;3.40;1.60;;;18.80;99.90;;;;;;4998857;28;20571;-57
2023/06/30 08:34:25;;;;;;;6.00;1.97;;;18.80;99.90;;;;;;5002184;28;20641;-57
2023/06/30 08:36:54;;;;;;;2.67;1.87;;;18.90;99.90;;;;;;5005848;28;20531;-58
2023/06/30 08:39:23;;;;;;;2.60;1.60;;;19.00;99.90;;;;;;5000858;28;20511;-57
2023/06/30 08:41:55;;;;;;;2.00;1.47;;;19.00;99.90;;;;;;5003397;28;20575;-56
2023/06/30 08:44:24;;;;;;;3.87;1.90;;;19.00;99.90;;;;;;5003636;28;20848;-58
2023/06/30 08:46:54;;;;;;;6.10;2.30;;;19.00;99.90;;;;;;5001613;28;20522;-57
2023/06/30 08:49:23;;;;;;;2.03;1.73;;;19.10;99.90;;;;;;5002069;28;20509;-57
2023/06/30 08:51:55;;;;;;;3.20;1.87;;;19.10;99.90;;;;;;4999758;28;20560;-57
2023/06/30 08:54:25;;;;;;;3.60;1.73;;;19.20;99.90;;;;;;4997306;28;20468;-58
2023/06/30 08:56:54;;;;;;;2.10;1.30;;;19.30;99.90;;;;;;4996564;28;20468;-57
2023/06/30 08:59:22;;;;;;;1.77;1.50;;;19.30;99.90;;;;;;4995177;28;20559;-58
2023/06/30 09:01:53;;;;;;;1.60;1.50;;;19.40;99.90;;;;;;4990419;28;20580;-58
2023/06/30 09:04:23;;;;;;;5.83;1.77;;;19.40;99.90;;;;;;5001416;28;20589;-58
2023/06/30 09:06:51;;;;;;;2.23;1.60;;;19.50;99.90;;;;;;4996442;28;20508;-58
2023/06/30 09:09:26;;;;;;;2.50;1.33;;;19.50;99.90;;;;;;4994961;28;20479;-58
2023/06/30 09:11:55;;;;;;;2.13;1.70;;;19.50;99.90;;;;;;4999169;28;20579;-58
2023/06/30 09:14:24;;;;;;;1.53;1.30;;;19.60;99.90;;;;;;4998913;28;20523;-58
2023/06/30 09:16:52;;;;;;;1.83;1.67;;;19.60;99.90;;;;;;5000394;28;20475;-58
2023/06/30 09:19:21;;;;;;;1.33;1.23;;;19.60;99.90;;;;;;4994618;28;20472;-57
2023/06/30 09:21:50;;;;;;;2.33;1.50;;;19.70;99.90;;;;;;4989619;28;20504;-59
2023/06/30 09:24:19;;;;;;;2.20;1.27;;;19.60;99.90;;;;;;4995367;28;20530;-58
2023/06/30 09:26:49;;;;;;;1.60;1.43;;;19.60;99.90;;;;;;4995388;28;21132;-59
2023/06/30 09:29:21;;;;;;;1.97;1.30;;;19.60;99.90;;;;;;4995063;28;21023;-59
2023/06/30 09:31:51;;;;;;;1.40;1.30;;;19.70;99.90;;;;;;4992555;28;20529;-58
2023/06/30 09:34:20;;;;;;;2.17;1.57;;;19.80;99.90;;;;;;4993008;28;20465;-59
2023/06/30 09:36:49;;;;;;;3.80;1.50;;;19.90;99.90;;;;;;4997695;28;20507;-59
2023/06/30 09:39:17;;;;;;;1.50;1.40;;;19.90;99.90;;;;;;5000552;28;20523;-59
2023/06/30 09:41:48;;;;;;;1.73;1.63;;;19.90;99.90;;;;;;4994016;28;20576;-58
2023/06/30 09:44:20;;;;;;;1.50;1.40;;;19.90;99.90;;;;;;4997474;28;20469;-58
2023/06/30 09:46:48;;;;;;;1.60;1.50;;;19.90;99.90;;;;;;4998426;28;20483;-58
2023/06/30 09:49:24;;;;;;;2.50;1.40;;;19.90;99.90;;;;;;4996767;28;20568;-57
2023/06/30 09:51:52;;;;;;;2.90;1.70;;;19.90;99.90;;;;;;5000497;28;20580;-58
2023/06/30 09:54:21;;;;;;;2.17;1.57;;;20.10;99.90;;;;;;4993455;28;20480;-56
2023/06/30 09:57:10;;;;;;;3.57;1.53;;;20.20;99.90;;;;;;4996823;28;20909;-57
2023/06/30 09:59:39;;;;;;;3.30;1.80;;;20.40;99.90;;;;;;4997579;28;20489;-57
2023/06/30 10:02:07;;;;;;;4.07;1.63;;;20.50;99.90;;;;;;4994211;28;20562;-57
2023/06/30 10:04:35;;;;;;;2.57;1.63;;;20.60;99.90;;;;;;4997630;28;21041;-58
2023/06/30 10:07:06;;;;;;;2.67;1.50;;;20.60;99.90;;;;;;4998109;28;20488;-58
2023/06/30 10:09:36;;;;;;;2.40;1.53;;;20.50;99.90;;;;;;4994388;28;20475;-58
2023/06/30 10:12:07;;;;;;;3.10;1.53;;;20.40;99.90;;;;;;4991982;28;20913;-58
2023/06/30 10:14:38;;;;;;;2.50;1.70;;;20.40;99.90;;;;;;4991702;28;20469;-58
2023/06/30 10:17:08;;;;;;;1.63;1.53;;;20.30;99.90;;;;;;4995541;28;20475;-58
2023/06/30 10:19:39;;;;;;;1.90;1.53;;;20.10;99.90;;;;;;4987797;28;20476;-58
2023/06/30 10:22:08;;;;;;;3.23;1.90;;;20.10;99.90;;;;;;4992930;28;20611;-57
2023/06/30 10:24:38;;;;;;;1.93;1.40;;;20.00;99.90;;;;;;4991686;28;20479;-58
2023/06/30 10:27:07;;;;;;;2.80;1.60;;;20.10;99.90;;;;;;4995963;28;20587;-58
2023/06/30 10:29:37;;;;;;;2.50;1.60;;;20.20;99.90;;;;;;4989468;28;21075;-58
2023/06/30 10:32:06;;;;;;;1.70;1.37;;;20.20;99.90;;;;;;4986443;28;20503;-57
2023/06/30 10:34:35;;;;;;;2.20;1.47;;;20.20;99.90;;;;;;4986542;28;20823;-58
2023/06/30 10:37:04;;;;;;;1.63;1.40;;;20.30;99.90;;;;;;4991742;28;20598;-58
2023/06/30 10:39:32;;;;;;;1.50;1.40;;;20.30;99.90;;;;;;4993762;28;20540;-58
2023/06/30 10:42:00;;;;;;;2.80;1.70;;;20.40;99.90;;;;;;4990851;28;20527;-58
2023/06/30 10:44:39;;;;;;;1.60;1.50;;;20.40;99.90;;;;;;4984764;28;20488;-58
2023/06/30 10:47:08;;;;;;;2.00;1.63;;;20.40;99.90;;;;;;4990548;28;20562;-58
2023/06/30 10:49:37;;;;;;;4.27;1.93;;;20.40;99.90;;;;;;4988443;28;20473;-58
2023/06/30 10:52:09;;;;;;;2.50;1.67;;;20.40;99.90;;;;;;4985855;28;20575;-58
2023/06/30 10:54:42;;;;;;;2.30;1.80;;;20.40;99.90;;;;;;4988219;28;20516;-58
2023/06/30 10:57:12;;;;;;;1.87;1.50;;;20.70;99.90;;;;;;4992784;28;20476;-59
2023/06/30 10:59:42;;;;;;;2.03;1.80;;;20.80;99.90;;;;;;4989615;28;20478;-60
2023/06/30 11:02:12;;;;;;;2.70;1.80;;;21.00;99.90;;;;;;4989505;28;20593;-59
2023/06/30 11:04:41;;;;;;;1.63;1.50;;;21.10;99.90;;;;;;4993286;28;20468;-60
2023/06/30 11:07:11;;;;;;;2.10;1.90;;;21.30;99.90;;;;;;4990361;28;20480;-59
2023/06/30 11:09:59;;;;;;;1.77;1.63;;;21.60;99.90;;;;;;4991445;28;20561;-59
2023/06/30 11:12:29;;;;;;;2.50;1.70;;;21.70;99.90;;;;;;4985482;28;20499;-58
2023/06/30 11:14:59;;;;;;;1.80;1.70;;;21.70;99.90;;;;;;4988720;28;20570;-61
2023/06/30 11:17:29;;;;;;;2.53;1.70;;;21.80;99.90;;;;;;4993513;28;20614;-60
2023/06/30 11:20:11;;;;;;;4.53;1.93;;;21.80;99.90;;;;;;4987560;28;20476;-60
2023/06/30 11:22:40;;;;;;;1.63;1.47;;;21.80;99.90;;;;;;4991352;28;20488;-57
2023/06/30 11:25:11;;;;;;;1.83;1.70;;;21.90;99.90;;;;;;4987280;28;20491;-57
2023/06/30 11:27:39;;;;;;;1.90;1.80;;;21.80;99.90;;;;;;4987279;28;20508;-57
2023/06/30 11:30:09;;;;;;;3.53;1.80;;;21.70;99.90;;;;;;4992507;28;20559;-57
2023/06/30 11:32:37;;;;;;;2.93;1.70;;;21.60;99.90;;;;;;4985070;28;20523;-58
2023/06/30 11:35:08;;;;;;;1.87;1.70;;;21.70;99.90;;;;;;4997193;28;20512;-57
2023/06/30 11:37:36;;;;;;;3.00;2.17;;;21.70;99.90;;;;;;4993031;28;20515;-57
2023/06/30 11:40:07;;;;;;;1.73;1.60;;;21.80;99.90;;;;;;4989768;28;20939;-58
2023/06/30 11:42:40;;;;;;;1.90;1.70;;;22.00;99.90;;;;;;4991489;28;20485;-58
2023/06/30 11:45:10;;;;;;;1.80;1.70;;;22.20;99.90;;;;;;4993642;28;20472;-57
2023/06/30 11:47:44;;;;;;;1.70;1.57;;;22.50;99.90;;;;;;4994641;28;20499;-63
2023/06/30 11:50:13;;;;;;;2.63;1.83;;;22.70;99.90;;;;;;4991607;28;20563;-63
2023/06/30 11:52:41;;;;;;;1.67;1.57;;;22.80;99.90;;;;;;4994226;28;21112;-63
2023/06/30 11:55:11;;;;;;;1.70;1.60;;;22.90;99.90;;;;;;4994802;28;20849;-63
2023/06/30 11:57:41;;;;;;;2.60;1.70;;;22.90;99.90;;;;;;4995760;28;20492;-61
2023/06/30 12:00:12;;;;;;;2.13;1.70;;;22.90;99.90;;;;;;4996144;28;20550;-60
2023/06/30 12:02:45;;;;;;;1.67;1.57;;;23.00;99.90;;;;;;4996272;28;20850;-60
2023/06/30 12:05:21;;;;;;;2.00;1.70;;;23.00;99.90;;;;;;4993656;28;20469;-57
2023/06/30 12:07:50;;;;;;;1.90;1.70;;;23.00;99.90;;;;;;4998031;28;20508;-58
2023/06/30 12:10:23;;;;;;;2.97;1.57;;;23.00;99.90;;;;;;4997087;28;20476;-58
2023/06/30 12:12:56;;;;;;;2.43;2.33;;;23.00;99.90;;;;;;4996867;28;20634;-58
2023/06/30 12:15:31;;;;;;;2.90;1.97;;;23.10;99.90;;;;;;4997671;28;20551;-58
2023/06/30 12:18:04;;;;;;;5.43;1.90;;;23.30;99.90;;;;;;4998953;28;20921;-58
2023/06/30 12:20:34;;;;;;;4.63;2.00;;;23.40;99.90;;;;;;4999712;28;20554;-58
2023/06/30 12:23:04;;;;;;;2.00;1.67;;;23.40;99.90;;;;;;4994931;28;20480;-59
2023/06/30 12:25:33;;;;;;;2.40;1.80;;;23.40;99.90;;;;;;4995937;28;20555;-58
2023/06/30 12:28:03;;;;;;;2.20;1.73;;;23.40;99.90;;;;;;4998497;28;20833;-58
2023/06/30 12:30:33;;;;;;;1.80;1.60;;;23.50;99.90;;;;;;4998143;28;20507;-58
2023/06/30 12:33:03;;;;;;;1.47;1.33;;;23.70;99.90;;;;;;4995857;28;20500;-58
2023/06/30 12:35:33;;;;;;;1.77;1.33;;;23.80;99.90;;;;;;4996910;28;20750;-58
2023/06/30 12:38:03;;;;;;;2.33;1.57;;;23.90;99.90;;;;;;4996107;28;20477;-57
2023/06/30 12:40:31;;;;;;;2.50;1.47;;;23.90;96.70;;;;;;4993879;28;20570;-57
2023/06/30 12:42:59;;;;;;;2.10;1.40;;;23.80;96.80;;;;;;4991001;28;20496;-58
2023/06/30 12:45:27;;;;;;;1.00;0.97;;;23.60;96.90;;;;;;4998000;28;20509;-58
2023/06/30 12:47:57;;;;;;;1.47;1.17;;;23.50;98.60;;;;;;4997833;28;20587;-58
2023/06/30 12:50:25;;;;;;;2.97;1.40;;;23.70;99.90;;;;;;4994295;28;20556;-58
2023/06/30 12:52:53;;;;;;;1.63;1.43;;;24.00;99.90;;;;;;4994736;28;20575;-58
2023/06/30 12:55:22;;;;;;;2.10;1.53;;;24.30;98.00;;;;;;4997872;28;21097;-58
2023/06/30 12:57:50;;;;;;;2.27;1.27;;;24.30;96.30;;;;;;4994961;28;20499;-58